Lincoln Thomas — WD12740 — position and weather

sailwx.info

Track history (hours):
 
Tides and Currents Weather Stations Pressure Air Temp Water Temp Dewpoint Dewpoint Depression Visibility Wind Speed Wind Dir Waves Ship Positions

Lincoln Thomas

Last reported at 2017-Dec-11 04:10 UTC. Time now 2017-Dec-12 19:56 UTC.
Position N 27°52' W 097°10'.

Length 20 m; draft 3 m.

Type: Towing. MMSI: 367812300.

Date/timePositionNaut miles runAvg speedWind from/ knotsBaromVisibWave heightAir tempDewpointWater temp
2017-Dec-11 04:10N 27°52' W 097°10'0 0.0
2017-Dec-11 03:58N 27°52' W 097°10'0 0.0
2017-Dec-11 03:28N 27°52' W 097°10'0 0.0
2017-Dec-11 02:58N 27°52' W 097°10'0 0.0
2017-Dec-11 02:28N 27°52' W 097°10'0 0.0
2017-Dec-11 01:58N 27°52' W 097°10'0 0.0
2017-Dec-11 01:28N 27°52' W 097°10'0 0.0
2017-Dec-11 00:58N 27°52' W 097°10'0 0.0
2017-Dec-11 00:25N 27°52' W 097°10'0 0.0
2017-Dec-10 23:58N 27°52' W 097°10'0 0.0
2017-Dec-10 23:28N 27°52' W 097°10'0 0.0
2017-Dec-10 22:58N 27°52' W 097°10'0 0.0
2017-Dec-10 22:25N 27°52' W 097°10'0 0.0
2017-Dec-10 21:58N 27°52' W 097°10'0 0.0
2017-Dec-10 21:28N 27°52' W 097°10'0 0.0
2017-Dec-10 20:55N 27°52' W 097°10'0 0.0
2017-Dec-10 20:28N 27°52' W 097°10'0 0.1
2017-Dec-10 20:00N 27°52' W 097°10'2 4.6
2017-Dec-10 19:30N 27°50' W 097°11'2 4.6
2017-Dec-10 18:59N 27°49' W 097°13'10 3.6
2017-Dec-10 16:09N 27°49' W 097°25'0 0.0
2017-Dec-10 15:54N 27°49' W 097°25'0 0.0
2017-Dec-10 15:30N 27°49' W 097°25'0 0.0
2017-Dec-10 14:57N 27°49' W 097°25'0 0.0
2017-Dec-10 14:27N 27°49' W 097°25'0 0.0
2017-Dec-10 13:57N 27°49' W 097°25'0 0.0
2017-Dec-10 13:27N 27°49' W 097°25'0 0.0
2017-Dec-10 13:00N 27°49' W 097°25'0 0.0
2017-Dec-10 12:30N 27°49' W 097°25'0 0.0
2017-Dec-10 11:57N 27°49' W 097°25'0 0.0
2017-Dec-10 11:30N 27°49' W 097°25'0 0.0
2017-Dec-10 10:57N 27°49' W 097°25'0 0.0
2017-Dec-10 10:27N 27°49' W 097°25'0 0.0
2017-Dec-10 09:03N 27°49' W 097°25'0 0.0
2017-Dec-10 08:57N 27°49' W 097°25'0 0.0
2017-Dec-10 08:30N 27°49' W 097°25'0 0.0
2017-Dec-10 08:00N 27°49' W 097°25'0 0.0
2017-Dec-10 07:27N 27°49' W 097°25'0 0.0
2017-Dec-10 06:57N 27°49' W 097°25'0 0.0
2017-Dec-10 02:39N 27°49' W 097°25'0 0.0
2017-Dec-10 02:15N 27°49' W 097°25'0 0.0
2017-Dec-10 01:45N 27°49' W 097°25'0 0.0
2017-Dec-10 01:15N 27°49' W 097°25'0 0.0
2017-Dec-10 00:51N 27°49' W 097°25'0 0.0
2017-Dec-10 00:21N 27°49' W 097°25'0 0.0
2017-Dec-09 14:35N 27°49' W 097°25'1 4.5
2017-Dec-09 14:27N 27°49' W 097°25'2 3.6
2017-Dec-09 14:00N 27°49' W 097°27'2 4.0
2017-Dec-09 13:30N 27°50' W 097°29'4 0.2
2017-Dec-08 15:13N 27°49' W 097°26'1 0.0
2017-Dec-07 05:12N 27°49' W 097°25'0 1.9
2017-Dec-07 04:57N 27°49' W 097°25'2 4.2
2017-Dec-07 04:30N 27°49' W 097°27'2 3.9
2017-Dec-07 03:59N 27°50' W 097°29'0 0.1
2017-Dec-06 23:05N 27°50' W 097°30'  
2017-Dec-04 08:43N 27°52' W 097°10'0 0.0
2017-Dec-04 08:28N 27°52' W 097°10'0 0.0
2017-Dec-04 07:58N 27°52' W 097°10'0 0.0
2017-Dec-04 07:22N 27°52' W 097°10'0 0.0
2017-Dec-04 06:58N 27°52' W 097°10'0 0.0
2017-Dec-04 06:28N 27°52' W 097°10'0 0.0
2017-Dec-04 05:58N 27°52' W 097°10'0 0.0
2017-Dec-04 05:28N 27°52' W 097°10'0 0.0
2017-Dec-04 04:58N 27°52' W 097°10'0 0.0
2017-Dec-04 04:28N 27°52' W 097°10'0 0.0
2017-Dec-04 03:58N 27°52' W 097°10'0 0.0
2017-Dec-04 03:28N 27°52' W 097°10'0 0.0
2017-Dec-04 02:58N 27°52' W 097°10'0 0.0
2017-Dec-04 02:28N 27°52' W 097°10'0 0.0
2017-Dec-04 01:58N 27°52' W 097°10'0 0.0
2017-Dec-04 01:28N 27°52' W 097°10'0 0.0
2017-Dec-03 19:19N 27°52' W 097°10'0 0.0
2017-Dec-03 17:46N 27°52' W 097°10'0 0.0
2017-Dec-03 17:28N 27°52' W 097°10'0 0.0
2017-Dec-03 16:37N 27°52' W 097°10'0 0.0
2017-Dec-03 16:28N 27°52' W 097°10'0 0.0
2017-Dec-03 15:58N 27°52' W 097°10'0 0.0
2017-Dec-03 15:28N 27°52' W 097°10'0 0.0
2017-Dec-03 11:52N 27°52' W 097°10'0 0.0
2017-Dec-03 11:25N 27°52' W 097°10'0 0.0
2017-Dec-03 10:58N 27°52' W 097°10'0 0.0
2017-Dec-03 10:28N 27°52' W 097°10'0 0.0
2017-Dec-03 03:58N 27°52' W 097°10'0 0.0
2017-Dec-03 03:28N 27°52' W 097°10'0 0.0
2017-Dec-03 02:58N 27°52' W 097°10'0 0.0
2017-Dec-03 02:28N 27°52' W 097°10'0 0.0
2017-Dec-03 01:58N 27°52' W 097°10'0 0.0
2017-Dec-03 01:28N 27°52' W 097°10'0 0.0
2017-Dec-03 00:55N 27°52' W 097°10'0 0.0
2017-Dec-03 00:28N 27°52' W 097°10'0 0.0
2017-Dec-02 23:55N 27°52' W 097°10'0 0.0
2017-Dec-02 23:28N 27°52' W 097°10'0 0.0
2017-Dec-02 22:58N 27°52' W 097°10'0 0.0
2017-Dec-02 22:28N 27°52' W 097°10'0 0.0
2017-Dec-02 21:58N 27°52' W 097°10'0 0.0
2017-Dec-02 21:28N 27°52' W 097°10'0 0.0
2017-Dec-02 20:58N 27°52' W 097°10'0 0.0
2017-Dec-02 20:25N 27°52' W 097°10'0 0.0
2017-Dec-02 19:58N 27°52' W 097°10'0 0.0
2017-Dec-02 19:28N 27°52' W 097°10'0 0.0
2017-Dec-02 18:58N 27°52' W 097°10'0 0.0
2017-Dec-02 18:28N 27°52' W 097°10'0 0.0
2017-Dec-02 17:58N 27°52' W 097°10'0 0.0
2017-Dec-02 17:28N 27°52' W 097°10'0 0.0
2017-Dec-02 16:58N 27°52' W 097°10'0 0.0
2017-Dec-02 16:25N 27°52' W 097°10'0 0.0
2017-Dec-02 15:52N 27°52' W 097°10'0 0.0
2017-Dec-02 15:28N 27°52' W 097°10'0 0.0
2017-Dec-02 14:58N 27°52' W 097°10'0 0.0
2017-Dec-02 14:28N 27°52' W 097°10'0 0.0
2017-Dec-02 13:58N 27°52' W 097°10'0 0.0
2017-Dec-02 13:28N 27°52' W 097°10'0 0.0
2017-Dec-02 12:55N 27°52' W 097°10'0 0.0
2017-Dec-02 12:28N 27°52' W 097°10'0 0.0
2017-Dec-02 11:58N 27°52' W 097°10'0 0.0
2017-Dec-02 11:28N 27°52' W 097°10'0 0.0
2017-Dec-02 10:58N 27°52' W 097°10'0 0.0
2017-Dec-02 10:25N 27°52' W 097°10'0 0.0
2017-Dec-02 09:58N 27°52' W 097°10'0 0.0
2017-Dec-02 09:28N 27°52' W 097°10'0 0.0
2017-Dec-02 09:00N 27°52' W 097°10'0 0.0
2017-Dec-02 08:30N 27°52' W 097°10'0 0.0
2017-Dec-02 08:01N 27°52' W 097°10'0 0.0
2017-Dec-02 07:30N 27°52' W 097°10'0 0.0
2017-Dec-02 07:00N 27°52' W 097°10'0 0.0
2017-Dec-02 06:31N 27°52' W 097°10'0 0.0
2017-Dec-02 06:00N 27°52' W 097°10'0 0.0
2017-Dec-02 05:30N 27°52' W 097°10'0 0.0
2017-Dec-02 04:52N 27°52' W 097°10'0 0.0
2017-Dec-02 04:30N 27°52' W 097°10'0 0.0
2017-Dec-02 02:00N 27°52' W 097°10'0 0.0
2017-Dec-02 01:30N 27°52' W 097°10'0 0.0
2017-Dec-02 01:00N 27°52' W 097°10'0 0.0
2017-Dec-02 00:30N 27°52' W 097°10'0 0.0
2017-Dec-01 23:57N 27°52' W 097°10'0 0.0
2017-Dec-01 23:30N 27°52' W 097°10'0 0.0
2017-Dec-01 22:54N 27°52' W 097°10'0 0.0
2017-Dec-01 22:30N 27°52' W 097°10'0 0.0
2017-Dec-01 22:00N 27°52' W 097°10'0 0.0
2017-Dec-01 21:30N 27°52' W 097°10'0 0.0
2017-Dec-01 20:57N 27°52' W 097°10'0 0.0
2017-Dec-01 20:27N 27°52' W 097°10'0 0.0
2017-Dec-01 20:00N 27°52' W 097°10'0 0.0
2017-Dec-01 19:30N 27°52' W 097°10'0 0.0
2017-Dec-01 19:00N 27°52' W 097°10'0 0.0
2017-Dec-01 18:27N 27°52' W 097°10'0 0.0
2017-Dec-01 18:00N 27°52' W 097°10'0 0.0
2017-Dec-01 17:30N 27°52' W 097°10'0 0.0
2017-Dec-01 17:01N 27°52' W 097°10'0 0.0
2017-Dec-01 16:30N 27°52' W 097°10'0 0.0
2017-Dec-01 15:57N 27°52' W 097°10'0 0.0
2017-Dec-01 15:27N 27°52' W 097°10'0 0.0
2017-Dec-01 15:00N 27°52' W 097°10'0 0.0
2017-Dec-01 14:30N 27°52' W 097°10'0 0.0
2017-Dec-01 14:00N 27°52' W 097°10'0 0.0
2017-Dec-01 13:30N 27°52' W 097°10'0 0.0
2017-Dec-01 13:00N 27°52' W 097°10'0 0.0
2017-Dec-01 12:30N 27°52' W 097°10'0 0.0
2017-Dec-01 12:00N 27°52' W 097°10'0 0.0
2017-Dec-01 11:30N 27°52' W 097°10'0 0.0
2017-Dec-01 11:00N 27°52' W 097°10'0 0.0
2017-Dec-01 10:30N 27°52' W 097°10'0 0.0
2017-Dec-01 10:00N 27°52' W 097°10'0 0.0
2017-Dec-01 09:30N 27°52' W 097°10'0 0.0
2017-Dec-01 09:00N 27°52' W 097°10'0 0.0
2017-Dec-01 08:27N 27°52' W 097°10'0 0.0
2017-Dec-01 08:00N 27°52' W 097°10'0 0.0
2017-Dec-01 07:30N 27°52' W 097°10'0 0.0
2017-Dec-01 07:00N 27°52' W 097°10'0 0.0
2017-Dec-01 06:30N 27°52' W 097°10'0 0.0
2017-Dec-01 06:00N 27°52' W 097°10'0 0.0
2017-Dec-01 05:30N 27°52' W 097°10'0 0.0
2017-Dec-01 05:00N 27°52' W 097°10'0 0.0
2017-Dec-01 04:30N 27°52' W 097°10'  
Track history (hours):
 
Tides and Currents Weather Stations Pressure Air Temp Water Temp Dewpoint Dewpoint Depression Visibility Wind Speed Wind Dir Waves Ship Positions

Lincoln Thomas

Last reported at 2017-Dec-11 04:10 UTC. Time now 2017-Dec-12 19:56 UTC.
Position N 27°52' W 097°10'.

Length 20 m; draft 3 m.

Type: Towing. MMSI: 367812300.

Date/timePositionNaut miles runAvg speedWind from/ knotsBaromVisibWave heightAir tempDewpointWater temp
2017-Dec-11 04:10N 27°52' W 097°10'0 0.0
2017-Dec-11 03:58N 27°52' W 097°10'0 0.0
2017-Dec-11 03:28N 27°52' W 097°10'0 0.0
2017-Dec-11 02:58N 27°52' W 097°10'0 0.0
2017-Dec-11 02:28N 27°52' W 097°10'0 0.0
2017-Dec-11 01:58N 27°52' W 097°10'0 0.0
2017-Dec-11 01:28N 27°52' W 097°10'0 0.0
2017-Dec-11 00:58N 27°52' W 097°10'0 0.0
2017-Dec-11 00:25N 27°52' W 097°10'0 0.0
2017-Dec-10 23:58N 27°52' W 097°10'0 0.0
2017-Dec-10 23:28N 27°52' W 097°10'0 0.0
2017-Dec-10 22:58N 27°52' W 097°10'0 0.0
2017-Dec-10 22:25N 27°52' W 097°10'0 0.0
2017-Dec-10 21:58N 27°52' W 097°10'0 0.0
2017-Dec-10 21:28N 27°52' W 097°10'0 0.0
2017-Dec-10 20:55N 27°52' W 097°10'0 0.0
2017-Dec-10 20:28N 27°52' W 097°10'0 0.1
2017-Dec-10 20:00N 27°52' W 097°10'2 4.6
2017-Dec-10 19:30N 27°50' W 097°11'2 4.6
2017-Dec-10 18:59N 27°49' W 097°13'10 3.6
2017-Dec-10 16:09N 27°49' W 097°25'0 0.0
2017-Dec-10 15:54N 27°49' W 097°25'0 0.0
2017-Dec-10 15:30N 27°49' W 097°25'0 0.0
2017-Dec-10 14:57N 27°49' W 097°25'0 0.0
2017-Dec-10 14:27N 27°49' W 097°25'0 0.0
2017-Dec-10 13:57N 27°49' W 097°25'0 0.0
2017-Dec-10 13:27N 27°49' W 097°25'0 0.0
2017-Dec-10 13:00N 27°49' W 097°25'0 0.0
2017-Dec-10 12:30N 27°49' W 097°25'0 0.0
2017-Dec-10 11:57N 27°49' W 097°25'0 0.0
2017-Dec-10 11:30N 27°49' W 097°25'0 0.0
2017-Dec-10 10:57N 27°49' W 097°25'0 0.0
2017-Dec-10 10:27N 27°49' W 097°25'0 0.0
2017-Dec-10 09:03N 27°49' W 097°25'0 0.0
2017-Dec-10 08:57N 27°49' W 097°25'0 0.0
2017-Dec-10 08:30N 27°49' W 097°25'0 0.0
2017-Dec-10 08:00N 27°49' W 097°25'0 0.0
2017-Dec-10 07:27N 27°49' W 097°25'0 0.0
2017-Dec-10 06:57N 27°49' W 097°25'0 0.0
2017-Dec-10 02:39N 27°49' W 097°25'0 0.0
2017-Dec-10 02:15N 27°49' W 097°25'0 0.0
2017-Dec-10 01:45N 27°49' W 097°25'0 0.0
2017-Dec-10 01:15N 27°49' W 097°25'0 0.0
2017-Dec-10 00:51N 27°49' W 097°25'0 0.0
2017-Dec-10 00:21N 27°49' W 097°25'0 0.0
2017-Dec-09 14:35N 27°49' W 097°25'1 4.5
2017-Dec-09 14:27N 27°49' W 097°25'2 3.6
2017-Dec-09 14:00N 27°49' W 097°27'2 4.0
2017-Dec-09 13:30N 27°50' W 097°29'4 0.2
2017-Dec-08 15:13N 27°49' W 097°26'1 0.0
2017-Dec-07 05:12N 27°49' W 097°25'0 1.9
2017-Dec-07 04:57N 27°49' W 097°25'2 4.2
2017-Dec-07 04:30N 27°49' W 097°27'2 3.9
2017-Dec-07 03:59N 27°50' W 097°29'0 0.1
2017-Dec-06 23:05N 27°50' W 097°30'  
2017-Dec-04 08:43N 27°52' W 097°10'0 0.0
2017-Dec-04 08:28N 27°52' W 097°10'0 0.0
2017-Dec-04 07:58N 27°52' W 097°10'0 0.0
2017-Dec-04 07:22N 27°52' W 097°10'0 0.0
2017-Dec-04 06:58N 27°52' W 097°10'0 0.0
2017-Dec-04 06:28N 27°52' W 097°10'0 0.0
2017-Dec-04 05:58N 27°52' W 097°10'0 0.0
2017-Dec-04 05:28N 27°52' W 097°10'0 0.0
2017-Dec-04 04:58N 27°52' W 097°10'0 0.0
2017-Dec-04 04:28N 27°52' W 097°10'0 0.0
2017-Dec-04 03:58N 27°52' W 097°10'0 0.0
2017-Dec-04 03:28N 27°52' W 097°10'0 0.0
2017-Dec-04 02:58N 27°52' W 097°10'0 0.0
2017-Dec-04 02:28N 27°52' W 097°10'0 0.0
2017-Dec-04 01:58N 27°52' W 097°10'0 0.0
2017-Dec-04 01:28N 27°52' W 097°10'0 0.0
2017-Dec-03 19:19N 27°52' W 097°10'0 0.0
2017-Dec-03 17:46N 27°52' W 097°10'0 0.0
2017-Dec-03 17:28N 27°52' W 097°10'0 0.0
2017-Dec-03 16:37N 27°52' W 097°10'0 0.0
2017-Dec-03 16:28N 27°52' W 097°10'0 0.0
2017-Dec-03 15:58N 27°52' W 097°10'0 0.0
2017-Dec-03 15:28N 27°52' W 097°10'0 0.0
2017-Dec-03 11:52N 27°52' W 097°10'0 0.0
2017-Dec-03 11:25N 27°52' W 097°10'0 0.0
2017-Dec-03 10:58N 27°52' W 097°10'0 0.0
2017-Dec-03 10:28N 27°52' W 097°10'0 0.0
2017-Dec-03 03:58N 27°52' W 097°10'0 0.0
2017-Dec-03 03:28N 27°52' W 097°10'0 0.0
2017-Dec-03 02:58N 27°52' W 097°10'0 0.0
2017-Dec-03 02:28N 27°52' W 097°10'0 0.0
2017-Dec-03 01:58N 27°52' W 097°10'0 0.0
2017-Dec-03 01:28N 27°52' W 097°10'0 0.0
2017-Dec-03 00:55N 27°52' W 097°10'0 0.0
2017-Dec-03 00:28N 27°52' W 097°10'0 0.0
2017-Dec-02 23:55N 27°52' W 097°10'0 0.0
2017-Dec-02 23:28N 27°52' W 097°10'0 0.0
2017-Dec-02 22:58N 27°52' W 097°10'0 0.0
2017-Dec-02 22:28N 27°52' W 097°10'0 0.0
2017-Dec-02 21:58N 27°52' W 097°10'0 0.0
2017-Dec-02 21:28N 27°52' W 097°10'0 0.0
2017-Dec-02 20:58N 27°52' W 097°10'0 0.0
2017-Dec-02 20:25N 27°52' W 097°10'0 0.0
2017-Dec-02 19:58N 27°52' W 097°10'0 0.0
2017-Dec-02 19:28N 27°52' W 097°10'0 0.0
2017-Dec-02 18:58N 27°52' W 097°10'0 0.0
2017-Dec-02 18:28N 27°52' W 097°10'0 0.0
2017-Dec-02 17:58N 27°52' W 097°10'0 0.0
2017-Dec-02 17:28N 27°52' W 097°10'0 0.0
2017-Dec-02 16:58N 27°52' W 097°10'0 0.0
2017-Dec-02 16:25N 27°52' W 097°10'0 0.0
2017-Dec-02 15:52N 27°52' W 097°10'0 0.0
2017-Dec-02 15:28N 27°52' W 097°10'0 0.0
2017-Dec-02 14:58N 27°52' W 097°10'0 0.0
2017-Dec-02 14:28N 27°52' W 097°10'0 0.0
2017-Dec-02 13:58N 27°52' W 097°10'0 0.0
2017-Dec-02 13:28N 27°52' W 097°10'0 0.0
2017-Dec-02 12:55N 27°52' W 097°10'0 0.0
2017-Dec-02 12:28N 27°52' W 097°10'0 0.0
2017-Dec-02 11:58N 27°52' W 097°10'0 0.0
2017-Dec-02 11:28N 27°52' W 097°10'0 0.0
2017-Dec-02 10:58N 27°52' W 097°10'0 0.0
2017-Dec-02 10:25N 27°52' W 097°10'0 0.0
2017-Dec-02 09:58N 27°52' W 097°10'0 0.0
2017-Dec-02 09:28N 27°52' W 097°10'0 0.0
2017-Dec-02 09:00N 27°52' W 097°10'0 0.0
2017-Dec-02 08:30N 27°52' W 097°10'0 0.0
2017-Dec-02 08:01N 27°52' W 097°10'0 0.0
2017-Dec-02 07:30N 27°52' W 097°10'0 0.0
2017-Dec-02 07:00N 27°52' W 097°10'0 0.0
2017-Dec-02 06:31N 27°52' W 097°10'0 0.0
2017-Dec-02 06:00N 27°52' W 097°10'0 0.0
2017-Dec-02 05:30N 27°52' W 097°10'0 0.0
2017-Dec-02 04:52N 27°52' W 097°10'0 0.0
2017-Dec-02 04:30N 27°52' W 097°10'0 0.0
2017-Dec-02 02:00N 27°52' W 097°10'0 0.0
2017-Dec-02 01:30N 27°52' W 097°10'0 0.0
2017-Dec-02 01:00N 27°52' W 097°10'0 0.0
2017-Dec-02 00:30N 27°52' W 097°10'0 0.0
2017-Dec-01 23:57N 27°52' W 097°10'0 0.0
2017-Dec-01 23:30N 27°52' W 097°10'0 0.0
2017-Dec-01 22:54N 27°52' W 097°10'0 0.0
2017-Dec-01 22:30N 27°52' W 097°10'0 0.0
2017-Dec-01 22:00N 27°52' W 097°10'0 0.0
2017-Dec-01 21:30N 27°52' W 097°10'0 0.0
2017-Dec-01 20:57N 27°52' W 097°10'0 0.0
2017-Dec-01 20:27N 27°52' W 097°10'0 0.0
2017-Dec-01 20:00N 27°52' W 097°10'0 0.0
2017-Dec-01 19:30N 27°52' W 097°10'0 0.0
2017-Dec-01 19:00N 27°52' W 097°10'0 0.0
2017-Dec-01 18:27N 27°52' W 097°10'0 0.0
2017-Dec-01 18:00N 27°52' W 097°10'0 0.0
2017-Dec-01 17:30N 27°52' W 097°10'0 0.0
2017-Dec-01 17:01N 27°52' W 097°10'0 0.0
2017-Dec-01 16:30N 27°52' W 097°10'0 0.0
2017-Dec-01 15:57N 27°52' W 097°10'0 0.0
2017-Dec-01 15:27N 27°52' W 097°10'0 0.0
2017-Dec-01 15:00N 27°52' W 097°10'0 0.0
2017-Dec-01 14:30N 27°52' W 097°10'0 0.0
2017-Dec-01 14:00N 27°52' W 097°10'0 0.0
2017-Dec-01 13:30N 27°52' W 097°10'0 0.0
2017-Dec-01 13:00N 27°52' W 097°10'0 0.0
2017-Dec-01 12:30N 27°52' W 097°10'0 0.0
2017-Dec-01 12:00N 27°52' W 097°10'0 0.0
2017-Dec-01 11:30N 27°52' W 097°10'0 0.0
2017-Dec-01 11:00N 27°52' W 097°10'0 0.0
2017-Dec-01 10:30N 27°52' W 097°10'0 0.0
2017-Dec-01 10:00N 27°52' W 097°10'0 0.0
2017-Dec-01 09:30N 27°52' W 097°10'0 0.0
2017-Dec-01 09:00N 27°52' W 097°10'0 0.0
2017-Dec-01 08:27N 27°52' W 097°10'0 0.0
2017-Dec-01 08:00N 27°52' W 097°10'0 0.0
2017-Dec-01 07:30N 27°52' W 097°10'0 0.0
2017-Dec-01 07:00N 27°52' W 097°10'0 0.0
2017-Dec-01 06:30N 27°52' W 097°10'0 0.0
2017-Dec-01 06:00N 27°52' W 097°10'0 0.0
2017-Dec-01 05:30N 27°52' W 097°10'0 0.0
2017-Dec-01 05:00N 27°52' W 097°10'0 0.0
2017-Dec-01 04:30N 27°52' W 097°10'  

Dump ship's entire track history